sensor_id;sensor_type;location;lat;lon;timestamp;pressure;altitude;pressure_sealevel;temperature;humidity
4085;BME280;2057;50.858;6.572;2023-05-20T00:01:27;100954.56;;;14.66;70.25
4085;BME280;2057;50.858;6.572;2023-05-20T00:03:52;100953.59;;;14.64;69.65
4085;BME280;2057;50.858;6.572;2023-05-20T00:06:17;100956.19;;;14.66;68.53
4085;BME280;2057;50.858;6.572;2023-05-20T00:08:43;100956.94;;;14.63;69.56
4085;BME280;2057;50.858;6.572;2023-05-20T00:11:08;100952.59;;;14.61;69.82
4085;BME280;2057;50.858;6.572;2023-05-20T00:13:33;100951.66;;;14.58;70.63
4085;BME280;2057;50.858;6.572;2023-05-20T00:16:00;100955.53;;;14.49;70.54
4085;BME280;2057;50.858;6.572;2023-05-20T00:18:25;100953.91;;;14.51;71.10
4085;BME280;2057;50.858;6.572;2023-05-20T00:20:51;100955.78;;;14.55;71.13
4085;BME280;2057;50.858;6.572;2023-05-20T00:23:18;100959.03;;;14.51;70.76
4085;BME280;2057;50.858;6.572;2023-05-20T00:25:43;100956.97;;;14.42;71.44
4085;BME280;2057;50.858;6.572;2023-05-20T00:28:08;100962.00;;;14.40;71.92
4085;BME280;2057;50.858;6.572;2023-05-20T00:30:34;100961.88;;;14.37;71.89
4085;BME280;2057;50.858;6.572;2023-05-20T00:32:59;100959.13;;;14.33;72.30
4085;BME280;2057;50.858;6.572;2023-05-20T00:35:24;100951.69;;;14.18;72.70
4085;BME280;2057;50.858;6.572;2023-05-20T00:37:51;100951.78;;;14.19;73.37
4085;BME280;2057;50.858;6.572;2023-05-20T00:40:16;100947.44;;;14.17;72.48
4085;BME280;2057;50.858;6.572;2023-05-20T00:42:42;100946.47;;;14.15;72.69
4085;BME280;2057;50.858;6.572;2023-05-20T00:45:08;100949.63;;;14.09;73.72
4085;BME280;2057;50.858;6.572;2023-05-20T00:47:34;100948.66;;;14.05;72.77
4085;BME280;2057;50.858;6.572;2023-05-20T00:50:01;100948.50;;;14.02;72.87
4085;BME280;2057;50.858;6.572;2023-05-20T00:52:30;100947.25;;;13.92;73.46
4085;BME280;2057;50.858;6.572;2023-05-20T00:54:57;100946.50;;;13.95;73.40
4085;BME280;2057;50.858;6.572;2023-05-20T00:57:23;100937.00;;;13.91;73.83
4085;BME280;2057;50.858;6.572;2023-05-20T00:59:48;100941.25;;;13.92;73.85
4085;BME280;2057;50.858;6.572;2023-05-20T01:02:14;100944.50;;;13.88;73.40
4085;BME280;2057;50.858;6.572;2023-05-20T01:04:40;100934.84;;;13.80;73.03
4085;BME280;2057;50.858;6.572;2023-05-20T01:07:11;100933.75;;;13.75;72.92
4085;BME280;2057;50.858;6.572;2023-05-20T01:09:37;100930.28;;;13.73;73.58
4085;BME280;2057;50.858;6.572;2023-05-20T01:12:15;100932.84;;;13.73;72.85
4085;BME280;2057;50.858;6.572;2023-05-20T01:15:08;100927.59;;;13.70;73.29
4085;BME280;2057;50.858;6.572;2023-05-20T01:17:38;100932.28;;;13.61;73.22
4085;BME280;2057;50.858;6.572;2023-05-20T01:20:05;100934.97;;;13.64;74.10
4085;BME280;2057;50.858;6.572;2023-05-20T01:22:36;100929.09;;;13.65;73.68
4085;BME280;2057;50.858;6.572;2023-05-20T01:25:01;100930.53;;;13.60;73.60
4085;BME280;2057;50.858;6.572;2023-05-20T01:27:27;100927.34;;;13.64;73.53
4085;BME280;2057;50.858;6.572;2023-05-20T01:29:54;100929.59;;;13.58;74.39
4085;BME280;2057;50.858;6.572;2023-05-20T01:32:22;100932.84;;;13.54;75.41
4085;BME280;2057;50.858;6.572;2023-05-20T01:34:49;100933.28;;;13.45;75.87
4085;BME280;2057;50.858;6.572;2023-05-20T01:37:17;100923.53;;;13.36;76.73
4085;BME280;2057;50.858;6.572;2023-05-20T01:39:44;100927.69;;;13.34;76.34
4085;BME280;2057;50.858;6.572;2023-05-20T01:42:11;100918.47;;;13.38;75.52
4085;BME280;2057;50.858;6.572;2023-05-20T01:44:38;100921.91;;;13.38;75.36
4085;BME280;2057;50.858;6.572;2023-05-20T01:47:04;100914.06;;;13.33;75.77
4085;BME280;2057;50.858;6.572;2023-05-20T01:49:29;100918.16;;;13.30;75.97
4085;BME280;2057;50.858;6.572;2023-05-20T01:51:55;100916.53;;;13.32;75.53
4085;BME280;2057;50.858;6.572;2023-05-20T01:54:20;100919.75;;;13.28;75.24
4085;BME280;2057;50.858;6.572;2023-05-20T01:56:46;100919.59;;;13.25;75.41
4085;BME280;2057;50.858;6.572;2023-05-20T01:59:11;100917.06;;;13.25;75.65
4085;BME280;2057;50.858;6.572;2023-05-20T02:01:37;100908.13;;;13.15;76.18
4085;BME280;2057;50.858;6.572;2023-05-20T02:04:02;100905.75;;;13.00;76.24
4085;BME280;2057;50.858;6.572;2023-05-20T02:06:27;100909.84;;;12.96;76.52
4085;BME280;2057;50.858;6.572;2023-05-20T02:08:53;100907.06;;;12.92;77.04
4085;BME280;2057;50.858;6.572;2023-05-20T02:11:18;100910.41;;;12.91;76.64
4085;BME280;2057;50.858;6.572;2023-05-20T02:13:44;100906.44;;;12.96;76.95
4085;BME280;2057;50.858;6.572;2023-05-20T02:16:09;100910.47;;;12.92;76.88
4085;BME280;2057;50.858;6.572;2023-05-20T02:18:34;100909.34;;;12.85;76.92
4085;BME280;2057;50.858;6.572;2023-05-20T02:21:03;100910.22;;;12.86;77.44
4085;BME280;2057;50.858;6.572;2023-05-20T02:23:30;100912.25;;;12.75;78.04
4085;BME280;2057;50.858;6.572;2023-05-20T02:25:55;100906.50;;;12.79;77.78
4085;BME280;2057;50.858;6.572;2023-05-20T02:28:20;100908.63;;;12.70;78.14
4085;BME280;2057;50.858;6.572;2023-05-20T02:30:46;100901.78;;;12.69;78.35
4085;BME280;2057;50.858;6.572;2023-05-20T02:33:11;100903.03;;;12.77;78.49
4085;BME280;2057;50.858;6.572;2023-05-20T02:35:38;100907.97;;;12.74;78.70
4085;BME280;2057;50.858;6.572;2023-05-20T02:38:03;100905.19;;;12.69;78.92
4085;BME280;2057;50.858;6.572;2023-05-20T02:40:29;100908.91;;;12.76;78.86
4085;BME280;2057;50.858;6.572;2023-05-20T02:42:54;100910.13;;;12.66;78.52
4085;BME280;2057;50.858;6.572;2023-05-20T02:45:19;100907.16;;;12.75;79.92
4085;BME280;2057;50.858;6.572;2023-05-20T02:47:45;100907.22;;;12.77;79.51
4085;BME280;2057;50.858;6.572;2023-05-20T02:50:10;100900.91;;;12.68;79.76
4085;BME280;2057;50.858;6.572;2023-05-20T02:52:35;100894.00;;;12.66;79.53
4085;BME280;2057;50.858;6.572;2023-05-20T02:55:01;100894.34;;;12.55;80.56
4085;BME280;2057;50.858;6.572;2023-05-20T02:57:26;100898.22;;;12.47;80.69
4085;BME280;2057;50.858;6.572;2023-05-20T02:59:53;100894.25;;;12.36;80.97
4085;BME280;2057;50.858;6.572;2023-05-20T03:02:19;100893.03;;;12.28;82.02
4085;BME280;2057;50.858;6.572;2023-05-20T03:04:44;100894.19;;;12.34;81.63
4085;BME280;2057;50.858;6.572;2023-05-20T03:07:10;100889.16;;;12.36;82.07
4085;BME280;2057;50.858;6.572;2023-05-20T03:09:36;100887.22;;;12.30;80.82
4085;BME280;2057;50.858;6.572;2023-05-20T03:12:02;100880.56;;;12.16;82.57
4085;BME280;2057;50.858;6.572;2023-05-20T03:14:27;100879.84;;;12.18;82.51
4085;BME280;2057;50.858;6.572;2023-05-20T03:16:53;100879.38;;;12.26;81.97
4085;BME280;2057;50.858;6.572;2023-05-20T03:19:21;100880.06;;;12.23;82.17
4085;BME280;2057;50.858;6.572;2023-05-20T03:21:47;100878.91;;;12.16;83.08
4085;BME280;2057;50.858;6.572;2023-05-20T03:24:13;100876.28;;;12.15;81.71
4085;BME280;2057;50.858;6.572;2023-05-20T03:26:38;100882.75;;;12.08;81.99
4085;BME280;2057;50.858;6.572;2023-05-20T03:29:08;100881.31;;;11.97;82.80
4085;BME280;2057;50.858;6.572;2023-05-20T03:31:33;100879.75;;;11.99;82.93
4085;BME280;2057;50.858;6.572;2023-05-20T03:33:59;100884.19;;;12.03;83.00
4085;BME280;2057;50.858;6.572;2023-05-20T03:36:24;100872.94;;;12.16;83.02
4085;BME280;2057;50.858;6.572;2023-05-20T03:38:49;100879.84;;;12.18;83.33
4085;BME280;2057;50.858;6.572;2023-05-20T03:41:15;100886.69;;;12.19;82.60
4085;BME280;2057;50.858;6.572;2023-05-20T03:43:40;100884.47;;;12.26;82.44
4085;BME280;2057;50.858;6.572;2023-05-20T03:46:06;100883.44;;;12.22;83.11
4085;BME280;2057;50.858;6.572;2023-05-20T03:48:31;100884.13;;;12.19;82.99
4085;BME280;2057;50.858;6.572;2023-05-20T03:50:56;100878.97;;;12.18;83.21
4085;BME280;2057;50.858;6.572;2023-05-20T03:53:22;100879.66;;;12.14;82.89
4085;BME280;2057;50.858;6.572;2023-05-20T03:55:47;100882.19;;;12.14;83.10
4085;BME280;2057;50.858;6.572;2023-05-20T03:58:13;100878.75;;;12.13;82.90
4085;BME280;2057;50.858;6.572;2023-05-20T04:00:39;100881.88;;;12.07;83.04
4085;BME280;2057;50.858;6.572;2023-05-20T04:03:05;100887.19;;;12.12;82.94
4085;BME280;2057;50.858;6.572;2023-05-20T04:05:30;100886.09;;;12.07;83.02
4085;BME280;2057;50.858;6.572;2023-05-20T04:07:56;100883.56;;;12.07;83.17
4085;BME280;2057;50.858;6.572;2023-05-20T04:10:22;100882.75;;;12.08;82.98
4085;BME280;2057;50.858;6.572;2023-05-20T04:12:48;100884.19;;;12.03;83.06
4085;BME280;2057;50.858;6.572;2023-05-20T04:15:13;100884.28;;;12.04;83.50
4085;BME280;2057;50.858;6.572;2023-05-20T04:17:39;100888.19;;;11.98;83.75
4085;BME280;2057;50.858;6.572;2023-05-20T04:20:05;100887.13;;;11.94;84.80
4085;BME280;2057;50.858;6.572;2023-05-20T04:22:32;100886.34;;;11.95;84.77
4085;BME280;2057;50.858;6.572;2023-05-20T04:24:58;100887.41;;;11.99;84.77
4085;BME280;2057;50.858;6.572;2023-05-20T04:27:23;100886.66;;;12.01;84.94
4085;BME280;2057;50.858;6.572;2023-05-20T04:29:50;100888.94;;;11.97;84.52
4085;BME280;2057;50.858;6.572;2023-05-20T04:32:18;100889.75;;;11.96;85.27
4085;BME280;2057;50.858;6.572;2023-05-20T04:34:47;100887.69;;;11.88;86.23
4085;BME280;2057;50.858;6.572;2023-05-20T04:37:13;100892.47;;;11.99;85.29
4085;BME280;2057;50.858;6.572;2023-05-20T04:39:38;100888.25;;;11.99;85.41
4085;BME280;2057;50.858;6.572;2023-05-20T04:42:04;100888.72;;;12.08;85.23
4085;BME280;2057;50.858;6.572;2023-05-20T04:44:30;100891.91;;;12.04;86.37
4085;BME280;2057;50.858;6.572;2023-05-20T04:46:56;100898.38;;;12.16;85.34
4085;BME280;2057;50.858;6.572;2023-05-20T04:49:25;100897.31;;;12.11;86.56
4085;BME280;2057;50.858;6.572;2023-05-20T04:51:51;100887.88;;;12.26;85.99
4085;BME280;2057;50.858;6.572;2023-05-20T04:54:17;100895.44;;;12.24;85.82
4085;BME280;2057;50.858;6.572;2023-05-20T04:56:44;100893.53;;;12.20;86.06
4085;BME280;2057;50.858;6.572;2023-05-20T04:59:10;100882.75;;;12.08;86.43
4085;BME280;2057;50.858;6.572;2023-05-20T05:01:36;100894.03;;;12.13;87.10
4085;BME280;2057;50.858;6.572;2023-05-20T05:04:01;100881.47;;;12.16;86.75
4085;BME280;2057;50.858;6.572;2023-05-20T05:06:27;100883.91;;;12.15;86.58
4085;BME280;2057;50.858;6.572;2023-05-20T05:08:53;100882.03;;;12.29;86.69
4085;BME280;2057;50.858;6.572;2023-05-20T05:11:18;100883.56;;;12.25;87.48
4085;BME280;2057;50.858;6.572;2023-05-20T05:13:44;100889.22;;;12.19;87.85
4085;BME280;2057;50.858;6.572;2023-05-20T05:16:09;100877.09;;;12.32;87.69
4085;BME280;2057;50.858;6.572;2023-05-20T05:18:35;100881.69;;;12.39;86.48
4085;BME280;2057;50.858;6.572;2023-05-20T05:21:04;100885.69;;;12.34;86.77
4085;BME280;2057;50.858;6.572;2023-05-20T05:23:30;100878.56;;;12.27;88.04
4085;BME280;2057;50.858;6.572;2023-05-20T05:25:56;100879.72;;;12.33;88.00
4085;BME280;2057;50.858;6.572;2023-05-20T05:28:21;100882.78;;;12.44;87.40
4085;BME280;2057;50.858;6.572;2023-05-20T05:30:47;100876.47;;;12.54;87.56
4085;BME280;2057;50.858;6.572;2023-05-20T05:33:13;100871.88;;;12.65;86.58
4085;BME280;2057;50.858;6.572;2023-05-20T05:35:40;100863.63;;;12.70;86.65
4085;BME280;2057;50.858;6.572;2023-05-20T05:38:06;100861.63;;;12.63;86.50
4085;BME280;2057;50.858;6.572;2023-05-20T05:40:31;100859.94;;;12.46;87.12
4085;BME280;2057;50.858;6.572;2023-05-20T05:42:57;100854.13;;;12.48;88.31
4085;BME280;2057;50.858;6.572;2023-05-20T05:45:22;100853.59;;;12.55;87.56
4085;BME280;2057;50.858;6.572;2023-05-20T05:47:47;100849.88;;;12.49;87.33
4085;BME280;2057;50.858;6.572;2023-05-20T05:50:13;100858.84;;;12.59;87.55
4085;BME280;2057;50.858;6.572;2023-05-20T05:52:38;100848.28;;;12.69;87.61
4085;BME280;2057;50.858;6.572;2023-05-20T05:55:04;100852.66;;;12.71;87.16
4085;BME280;2057;50.858;6.572;2023-05-20T05:57:29;100854.19;;;12.87;87.13
4085;BME280;2057;50.858;6.572;2023-05-20T05:59:55;100860.66;;;12.99;86.40
4085;BME280;2057;50.858;6.572;2023-05-20T06:02:21;100848.88;;;13.01;87.26
4085;BME280;2057;50.858;6.572;2023-05-20T06:04:46;100855.56;;;12.99;87.31
4085;BME280;2057;50.858;6.572;2023-05-20T06:07:11;100857.31;;;13.00;87.08
4085;BME280;2057;50.858;6.572;2023-05-20T06:09:37;100856.53;;;13.01;86.88
4085;BME280;2057;50.858;6.572;2023-05-20T06:12:03;100852.59;;;13.08;86.83
4085;BME280;2057;50.858;6.572;2023-05-20T06:14:29;100851.63;;;13.06;86.55
4085;BME280;2057;50.858;6.572;2023-05-20T06:16:54;100860.13;;;13.06;86.61
4085;BME280;2057;50.858;6.572;2023-05-20T06:19:19;100853.06;;;13.18;86.16
4085;BME280;2057;50.858;6.572;2023-05-20T06:21:45;100856.41;;;13.17;86.12
4085;BME280;2057;50.858;6.572;2023-05-20T06:24:10;100856.53;;;13.21;86.24
4085;BME280;2057;50.858;6.572;2023-05-20T06:26:35;100855.59;;;13.38;85.35
4085;BME280;2057;50.858;6.572;2023-05-20T06:29:02;100854.22;;;13.45;86.22
4085;BME280;2057;50.858;6.572;2023-05-20T06:31:28;100856.28;;;13.54;85.40
4085;BME280;2057;50.858;6.572;2023-05-20T06:33:54;100849.84;;;13.62;85.45
4085;BME280;2057;50.858;6.572;2023-05-20T06:36:19;100852.09;;;13.75;84.53
4085;BME280;2057;50.858;6.572;2023-05-20T06:38:45;100847.78;;;13.74;84.42
4085;BME280;2057;50.858;6.572;2023-05-20T06:41:10;100856.81;;;13.87;83.86
4085;BME280;2057;50.858;6.572;2023-05-20T06:43:36;100850.25;;;13.92;83.54
4085;BME280;2057;50.858;6.572;2023-05-20T06:46:01;100844.94;;;13.88;84.22
4085;BME280;2057;50.858;6.572;2023-05-20T06:48:26;100846.69;;;13.89;83.78
4085;BME280;2057;50.858;6.572;2023-05-20T06:50:52;100844.16;;;13.89;83.75
4085;BME280;2057;50.858;6.572;2023-05-20T06:53:17;100839.59;;;14.03;83.88
4085;BME280;2057;50.858;6.572;2023-05-20T06:55:42;100844.00;;;14.07;83.05
4085;BME280;2057;50.858;6.572;2023-05-20T06:58:08;100836.06;;;14.20;82.61
4085;BME280;2057;50.858;6.572;2023-05-20T07:00:33;100831.81;;;14.21;82.71
4085;BME280;2057;50.858;6.572;2023-05-20T07:02:58;100835.75;;;14.35;83.54
4085;BME280;2057;50.858;6.572;2023-05-20T07:05:24;100836.97;;;14.43;82.91
4085;BME280;2057;50.858;6.572;2023-05-20T07:07:49;100832.88;;;14.49;83.69
4085;BME280;2057;50.858;6.572;2023-05-20T07:10:15;100836.59;;;14.57;81.78
4085;BME280;2057;50.858;6.572;2023-05-20T07:12:40;100829.97;;;14.62;81.51
4085;BME280;2057;50.858;6.572;2023-05-20T07:15:07;100826.63;;;14.63;81.67
4085;BME280;2057;50.858;6.572;2023-05-20T07:17:32;100830.09;;;14.65;81.73
4085;BME280;2057;50.858;6.572;2023-05-20T07:19:57;100823.06;;;14.59;82.17
4085;BME280;2057;50.858;6.572;2023-05-20T07:22:23;100818.50;;;14.73;82.38
4085;BME280;2057;50.858;6.572;2023-05-20T07:24:48;100815.31;;;14.79;81.19
4085;BME280;2057;50.858;6.572;2023-05-20T07:27:14;100813.88;;;14.86;80.81
4085;BME280;2057;50.858;6.572;2023-05-20T07:29:39;100807.44;;;14.97;80.52
4085;BME280;2057;50.858;6.572;2023-05-20T07:32:05;100809.03;;;15.18;78.39
4085;BME280;2057;50.858;6.572;2023-05-20T07:34:30;100809.16;;;15.21;77.62
4085;BME280;2057;50.858;6.572;2023-05-20T07:36:56;100812.56;;;15.46;77.48
4085;BME280;2057;50.858;6.572;2023-05-20T07:39:22;100803.34;;;15.51;75.81
4085;BME280;2057;50.858;6.572;2023-05-20T07:41:48;100799.50;;;15.38;76.90
4085;BME280;2057;50.858;6.572;2023-05-20T07:44:14;100792.97;;;15.22;78.25
4085;BME280;2057;50.858;6.572;2023-05-20T07:46:39;100800.91;;;15.30;78.20
4085;BME280;2057;50.858;6.572;2023-05-20T07:49:06;100792.47;;;15.32;78.67
4085;BME280;2057;50.858;6.572;2023-05-20T07:51:31;100800.22;;;15.34;78.82
4085;BME280;2057;50.858;6.572;2023-05-20T07:53:57;100794.69;;;15.47;78.60
4085;BME280;2057;50.858;6.572;2023-05-20T07:56:22;100791.31;;;15.48;77.27
4085;BME280;2057;50.858;6.572;2023-05-20T07:59:06;100790.44;;;15.48;78.41
4085;BME280;2057;50.858;6.572;2023-05-20T08:01:31;100792.63;;;15.63;77.00
4085;BME280;2057;50.858;6.572;2023-05-20T08:03:57;100790.22;;;15.67;76.84
4085;BME280;2057;50.858;6.572;2023-05-20T08:06:22;100786.00;;;15.94;76.16
4085;BME280;2057;50.858;6.572;2023-05-20T08:08:51;100788.44;;;16.18;76.71
4085;BME280;2057;50.858;6.572;2023-05-20T08:11:19;100785.81;;;16.15;77.87
4085;BME280;2057;50.858;6.572;2023-05-20T08:13:47;100784.53;;;16.29;76.41
4085;BME280;2057;50.858;6.572;2023-05-20T08:16:13;100784.56;;;16.31;74.79
4085;BME280;2057;50.858;6.572;2023-05-20T08:18:39;100785.44;;;16.31;74.81
4085;BME280;2057;50.858;6.572;2023-05-20T08:21:05;100777.50;;;16.51;75.22
4085;BME280;2057;50.858;6.572;2023-05-20T08:23:32;100782.03;;;16.61;74.79
4085;BME280;2057;50.858;6.572;2023-05-20T08:25:58;100776.50;;;16.47;74.14
4085;BME280;2057;50.858;6.572;2023-05-20T08:28:26;100779.28;;;16.54;72.53
4085;BME280;2057;50.858;6.572;2023-05-20T08:30:52;100775.75;;;16.50;73.88
4085;BME280;2057;50.858;6.572;2023-05-20T08:33:17;100770.03;;;16.60;74.65
4085;BME280;2057;50.858;6.572;2023-05-20T08:35:43;100778.06;;;16.71;74.63
4085;BME280;2057;50.858;6.572;2023-05-20T08:38:09;100776.91;;;16.92;72.75
4085;BME280;2057;50.858;6.572;2023-05-20T08:40:35;100774.34;;;16.92;71.83
4085;BME280;2057;50.858;6.572;2023-05-20T08:43:01;100772.25;;;17.07;73.59
4085;BME280;2057;50.858;6.572;2023-05-20T08:45:28;100765.81;;;17.23;71.71
4085;BME280;2057;50.858;6.572;2023-05-20T08:47:56;100765.88;;;17.25;72.64
4085;BME280;2057;50.858;6.572;2023-05-20T08:50:22;100763.09;;;17.17;71.62
4085;BME280;2057;50.858;6.572;2023-05-20T08:52:48;100757.00;;;17.12;71.09
4085;BME280;2057;50.858;6.572;2023-05-20T08:55:16;100760.66;;;16.91;72.19
4085;BME280;2057;50.858;6.572;2023-05-20T08:57:43;100764.06;;;16.90;73.44
4085;BME280;2057;50.858;6.572;2023-05-20T09:00:11;100761.91;;;17.04;72.60
4085;BME280;2057;50.858;6.572;2023-05-20T09:02:38;100759.84;;;17.24;71.34
4085;BME280;2057;50.858;6.572;2023-05-20T09:05:04;100762.81;;;17.40;71.02
4085;BME280;2057;50.858;6.572;2023-05-20T09:07:30;100756.41;;;17.58;70.78
4085;BME280;2057;50.858;6.572;2023-05-20T09:09:56;100760.94;;;17.68;70.60
4085;BME280;2057;50.858;6.572;2023-05-20T09:12:22;100752.91;;;17.91;70.81
4085;BME280;2057;50.858;6.572;2023-05-20T09:14:48;100763.13;;;17.87;69.61
4085;BME280;2057;50.858;6.572;2023-05-20T09:17:13;100768.38;;;17.94;70.20
4085;BME280;2057;50.858;6.572;2023-05-20T09:19:38;100763.75;;;17.79;69.44
4085;BME280;2057;50.858;6.572;2023-05-20T09:22:04;100752.59;;;17.77;69.89
4085;BME280;2057;50.858;6.572;2023-05-20T09:24:30;100751.38;;;17.62;69.62
4085;BME280;2057;50.858;6.572;2023-05-20T09:26:55;100752.41;;;17.69;70.20
4085;BME280;2057;50.858;6.572;2023-05-20T09:29:22;100747.28;;;17.69;69.70
4085;BME280;2057;50.858;6.572;2023-05-20T09:31:49;100743.84;;;17.68;71.06
4085;BME280;2057;50.858;6.572;2023-05-20T09:34:15;100749.16;;;17.76;70.34
4085;BME280;2057;50.858;6.572;2023-05-20T09:36:42;100747.25;;;17.67;70.69
4085;BME280;2057;50.858;6.572;2023-05-20T09:39:12;100749.16;;;17.76;70.25
4085;BME280;2057;50.858;6.572;2023-05-20T09:41:53;100750.81;;;17.74;69.95
4085;BME280;2057;50.858;6.572;2023-05-20T09:44:20;100744.81;;;17.74;69.48
4085;BME280;2057;50.858;6.572;2023-05-20T09:46:46;100734.44;;;17.69;69.78
4085;BME280;2057;50.858;6.572;2023-05-20T09:49:13;100736.34;;;18.14;70.55
4085;BME280;2057;50.858;6.572;2023-05-20T09:51:40;100736.88;;;18.39;69.58
4085;BME280;2057;50.858;6.572;2023-05-20T09:54:06;100747.03;;;18.33;68.14
4085;BME280;2057;50.858;6.572;2023-05-20T09:56:33;100728.19;;;18.34;68.20
4085;BME280;2057;50.858;6.572;2023-05-20T09:58:59;100732.47;;;18.35;69.30
4085;BME280;2057;50.858;6.572;2023-05-20T10:01:26;100736.19;;;18.48;69.68
4085;BME280;2057;50.858;6.572;2023-05-20T10:03:52;100736.16;;;18.46;68.21
4085;BME280;2057;50.858;6.572;2023-05-20T10:17:25;100732.97;;;19.01;67.57
4085;BME280;2057;50.858;6.572;2023-05-20T10:19:59;100725.50;;;19.15;66.60
4085;BME280;2057;50.858;6.572;2023-05-20T10:22:29;100725.66;;;19.26;66.57
4085;BME280;2057;50.858;6.572;2023-05-20T10:24:59;100734.81;;;19.08;66.67
4085;BME280;2057;50.858;6.572;2023-05-20T10:27:25;100721.88;;;19.05;66.48
4085;BME280;2057;50.858;6.572;2023-05-20T10:29:53;100732.13;;;19.02;68.10
4085;BME280;2057;50.858;6.572;2023-05-20T10:32:31;100727.84;;;19.03;65.54
4085;BME280;2057;50.858;6.572;2023-05-20T10:35:07;100723.75;;;19.14;65.07
4085;BME280;2057;50.858;6.572;2023-05-20T10:37:41;100729.72;;;19.11;65.09
4085;BME280;2057;50.858;6.572;2023-05-20T10:40:09;100733.06;;;19.07;66.51
4085;BME280;2057;50.858;6.572;2023-05-20T10:42:35;100724.56;;;19.11;67.32
4085;BME280;2057;50.858;6.572;2023-05-20T10:45:02;100728.31;;;19.31;66.33
4085;BME280;2057;50.858;6.572;2023-05-20T10:47:28;100728.41;;;19.35;65.94
4085;BME280;2057;50.858;6.572;2023-05-20T10:49:53;100727.81;;;19.52;64.77
4085;BME280;2057;50.858;6.572;2023-05-20T10:52:19;100720.09;;;19.53;65.93
4085;BME280;2057;50.858;6.572;2023-05-20T10:54:58;100716.97;;;19.74;64.83
4085;BME280;2057;50.858;6.572;2023-05-20T10:57:26;100716.66;;;19.53;64.45
4085;BME280;2057;50.858;6.572;2023-05-20T11:02:24;100712.19;;;19.98;63.75
4085;BME280;2057;50.858;6.572;2023-05-20T11:04:54;100705.66;;;20.23;64.32
4085;BME280;2057;50.858;6.572;2023-05-20T11:07:27;100709.34;;;20.42;64.03
4085;BME280;2057;50.858;6.572;2023-05-20T11:09:53;100699.69;;;20.26;63.02
4085;BME280;2057;50.858;6.572;2023-05-20T11:12:20;100698.06;;;20.34;62.57
4085;BME280;2057;50.858;6.572;2023-05-20T11:14:48;100694.41;;;20.16;64.25
4085;BME280;2057;50.858;6.572;2023-05-20T11:17:15;100696.66;;;19.93;64.96
4085;BME280;2057;50.858;6.572;2023-05-20T11:19:41;100686.94;;;19.75;64.12
4085;BME280;2057;50.858;6.572;2023-05-20T11:22:07;100688.94;;;19.95;64.14
4085;BME280;2057;50.858;6.572;2023-05-20T11:24:32;100678.75;;;20.02;65.06
4085;BME280;2057;50.858;6.572;2023-05-20T11:26:59;100673.94;;;20.30;65.39
4085;BME280;2057;50.858;6.572;2023-05-20T11:29:25;100674.00;;;20.36;63.88
4085;BME280;2057;50.858;6.572;2023-05-20T11:31:51;100676.66;;;20.43;63.27
4085;BME280;2057;50.858;6.572;2023-05-20T11:34:20;100675.59;;;20.24;63.43
4085;BME280;2057;50.858;6.572;2023-05-20T11:36:58;100678.03;;;20.13;63.46
4085;BME280;2057;50.858;6.572;2023-05-20T11:39:24;100672.09;;;20.20;63.02
4085;BME280;2057;50.858;6.572;2023-05-20T11:41:51;100672.38;;;20.43;63.46
4085;BME280;2057;50.858;6.572;2023-05-20T11:44:18;100667.78;;;20.20;63.19
4085;BME280;2057;50.858;6.572;2023-05-20T11:46:45;100665.16;;;20.14;63.62
4085;BME280;2057;50.858;6.572;2023-05-20T11:49:14;100667.97;;;20.34;62.97
4085;BME280;2057;50.858;6.572;2023-05-20T11:51:40;100676.75;;;20.52;63.76
4085;BME280;2057;50.858;6.572;2023-05-20T11:54:07;100673.22;;;20.41;62.64
4085;BME280;2057;50.858;6.572;2023-05-20T11:56:37;100676.81;;;20.55;62.02
4085;BME280;2057;50.858;6.572;2023-05-20T11:59:04;100682.00;;;20.58;61.49
4085;BME280;2057;50.858;6.572;2023-05-20T12:01:31;100673.22;;;20.41;62.03
4085;BME280;2057;50.858;6.572;2023-05-20T12:03:58;100660.28;;;20.37;61.38
4085;BME280;2057;50.858;6.572;2023-05-20T12:06:23;100660.53;;;20.64;62.32
4085;BME280;2057;50.858;6.572;2023-05-20T12:08:49;100661.31;;;20.55;61.20
4085;BME280;2057;50.858;6.572;2023-05-20T12:11:15;100659.03;;;20.78;62.86
4085;BME280;2057;50.858;6.572;2023-05-20T12:13:41;100661.06;;;21.13;60.59
4085;BME280;2057;50.858;6.572;2023-05-20T12:16:06;100658.38;;;21.06;60.94
4085;BME280;2057;50.858;6.572;2023-05-20T12:18:31;100654.78;;;20.85;60.71
4085;BME280;2057;50.858;6.572;2023-05-20T12:21:00;100658.81;;;20.61;62.46
4085;BME280;2057;50.858;6.572;2023-05-20T12:23:26;100651.84;;;20.54;61.79
4085;BME280;2057;50.858;6.572;2023-05-20T12:25:53;100651.91;;;20.57;61.58
4085;BME280;2057;50.858;6.572;2023-05-20T12:28:18;100644.25;;;20.68;62.95
4085;BME280;2057;50.858;6.572;2023-05-20T12:30:44;100656.31;;;20.67;62.52
4085;BME280;2057;50.858;6.572;2023-05-20T12:33:09;100640.78;;;20.64;62.85
4085;BME280;2057;50.858;6.572;2023-05-20T12:35:39;100645.84;;;20.55;63.91
4085;BME280;2057;50.858;6.572;2023-05-20T12:38:05;100647.19;;;21.02;62.92
4085;BME280;2057;50.858;6.572;2023-05-20T12:40:31;100646.41;;;21.14;62.06
4085;BME280;2057;50.858;6.572;2023-05-20T12:42:56;100635.41;;;21.37;60.28
4085;BME280;2057;50.858;6.572;2023-05-20T12:45:23;100633.59;;;21.28;61.08
4085;BME280;2057;50.858;6.572;2023-05-20T12:47:48;100624.41;;;21.66;60.70
4085;BME280;2057;50.858;6.572;2023-05-20T12:50:13;100631.00;;;21.23;61.13
4085;BME280;2057;50.858;6.572;2023-05-20T12:52:39;100634.66;;;21.53;60.63
4085;BME280;2057;50.858;6.572;2023-05-20T12:55:04;100643.19;;;21.43;62.76
4085;BME280;2057;50.858;6.572;2023-05-20T12:57:41;100645.56;;;21.15;62.08
4085;BME280;2057;50.858;6.572;2023-05-20T13:00:08;100634.41;;;21.22;62.51
4085;BME280;2057;50.858;6.572;2023-05-20T13:02:34;100644.59;;;21.00;63.79
4085;BME280;2057;50.858;6.572;2023-05-20T13:05:00;100648.09;;;21.12;62.08
4085;BME280;2057;50.858;6.572;2023-05-20T13:07:25;100639.47;;;21.08;61.89
4085;BME280;2057;50.858;6.572;2023-05-20T13:09:51;100642.09;;;21.10;61.74
4085;BME280;2057;50.858;6.572;2023-05-20T13:12:17;100642.94;;;21.12;61.11
4085;BME280;2057;50.858;6.572;2023-05-20T13:14:43;100629.28;;;21.24;62.57
4085;BME280;2057;50.858;6.572;2023-05-20T13:17:08;100627.91;;;21.77;61.73
4085;BME280;2057;50.858;6.572;2023-05-20T13:19:33;100620.84;;;21.53;60.26